sensor_id;sensor_type;location;lat;lon;timestamp;P1;durP1;ratioP1;P2;durP2;ratioP2
78406;SDS011;67692;51.074;-1.790;2023-04-01T00:01:06;7.63;;;1.58;;
78406;SDS011;67692;51.074;-1.790;2023-04-01T00:03:33;5.43;;;1.45;;
78406;SDS011;67692;51.074;-1.790;2023-04-01T00:06:01;9.65;;;1.30;;
78406;SDS011;67692;51.074;-1.790;2023-04-01T00:08:28;10.82;;;1.27;;
78406;SDS011;67692;51.074;-1.790;2023-04-01T00:10:57;12.07;;;1.40;;
78406;SDS011;67692;51.074;-1.790;2023-04-01T00:13:23;9.82;;;1.45;;
78406;SDS011;67692;51.074;-1.790;2023-04-01T00:15:51;6.53;;;1.17;;
78406;SDS011;67692;51.074;-1.790;2023-04-01T00:18:19;11.70;;;1.50;;
78406;SDS011;67692;51.074;-1.790;2023-04-01T00:20:45;9.18;;;2.05;;
78406;SDS011;67692;51.074;-1.790;2023-04-01T00:23:13;8.32;;;2.03;;
78406;SDS011;67692;51.074;-1.790;2023-04-01T00:25:40;8.30;;;1.20;;
78406;SDS011;67692;51.074;-1.790;2023-04-01T00:28:09;7.95;;;1.30;;
78406;SDS011;67692;51.074;-1.790;2023-04-01T00:30:35;5.82;;;1.27;;
78406;SDS011;67692;51.074;-1.790;2023-04-01T00:33:02;7.90;;;1.35;;
78406;SDS011;67692;51.074;-1.790;2023-04-01T00:35:29;8.40;;;1.13;;
78406;SDS011;67692;51.074;-1.790;2023-04-01T00:37:57;4.40;;;1.08;;
78406;SDS011;67692;51.074;-1.790;2023-04-01T00:40:30;11.52;;;1.90;;
78406;SDS011;67692;51.074;-1.790;2023-04-01T00:42:58;11.40;;;1.95;;
78406;SDS011;67692;51.074;-1.790;2023-04-01T00:45:36;7.78;;;1.50;;
78406;SDS011;67692;51.074;-1.790;2023-04-01T00:48:05;12.10;;;1.90;;
78406;SDS011;67692;51.074;-1.790;2023-04-01T00:50:35;9.57;;;2.00;;
78406;SDS011;67692;51.074;-1.790;2023-04-01T00:53:05;10.80;;;1.80;;
78406;SDS011;67692;51.074;-1.790;2023-04-01T00:55:34;10.82;;;1.80;;
78406;SDS011;67692;51.074;-1.790;2023-04-01T00:58:05;5.38;;;1.33;;
78406;SDS011;67692;51.074;-1.790;2023-04-01T01:00:36;9.63;;;1.70;;
78406;SDS011;67692;51.074;-1.790;2023-04-01T01:03:04;6.97;;;1.38;;
78406;SDS011;67692;51.074;-1.790;2023-04-01T01:05:34;11.13;;;1.98;;
78406;SDS011;67692;51.074;-1.790;2023-04-01T01:08:14;5.82;;;1.80;;
78406;SDS011;67692;51.074;-1.790;2023-04-01T01:10:49;5.20;;;1.30;;
78406;SDS011;67692;51.074;-1.790;2023-04-01T01:13:16;6.30;;;1.90;;
78406;SDS011;67692;51.074;-1.790;2023-04-01T01:15:52;8.68;;;1.75;;
78406;SDS011;67692;51.074;-1.790;2023-04-01T01:18:25;7.35;;;1.90;;
78406;SDS011;67692;51.074;-1.790;2023-04-01T01:26:44;6.35;;;1.50;;
78406;SDS011;67692;51.074;-1.790;2023-04-01T01:29:41;9.50;;;1.55;;
78406;SDS011;67692;51.074;-1.790;2023-04-01T01:32:54;11.57;;;1.83;;
78406;SDS011;67692;51.074;-1.790;2023-04-01T01:35:30;9.05;;;1.50;;
78406;SDS011;67692;51.074;-1.790;2023-04-01T01:37:59;7.47;;;1.30;;
78406;SDS011;67692;51.074;-1.790;2023-04-01T01:40:30;6.13;;;1.52;;
78406;SDS011;67692;51.074;-1.790;2023-04-01T01:42:59;10.32;;;1.33;;
78406;SDS011;67692;51.074;-1.790;2023-04-01T01:45:30;7.57;;;1.38;;
78406;SDS011;67692;51.074;-1.790;2023-04-01T01:48:00;11.15;;;1.73;;
78406;SDS011;67692;51.074;-1.790;2023-04-01T01:50:30;9.48;;;1.80;;
78406;SDS011;67692;51.074;-1.790;2023-04-01T01:53:04;9.88;;;1.52;;
78406;SDS011;67692;51.074;-1.790;2023-04-01T01:55:32;8.30;;;2.15;;
78406;SDS011;67692;51.074;-1.790;2023-04-01T01:58:02;11.93;;;1.80;;
78406;SDS011;67692;51.074;-1.790;2023-04-01T02:00:35;8.43;;;1.88;;
78406;SDS011;67692;51.074;-1.790;2023-04-01T02:03:02;6.10;;;1.83;;
78406;SDS011;67692;51.074;-1.790;2023-04-01T02:05:32;7.40;;;1.77;;
78406;SDS011;67692;51.074;-1.790;2023-04-01T02:08:00;9.20;;;1.80;;
78406;SDS011;67692;51.074;-1.790;2023-04-01T02:10:31;11.13;;;2.17;;
78406;SDS011;67692;51.074;-1.790;2023-04-01T02:13:03;8.70;;;1.73;;
78406;SDS011;67692;51.074;-1.790;2023-04-01T02:15:37;7.93;;;1.65;;
78406;SDS011;67692;51.074;-1.790;2023-04-01T02:18:07;10.55;;;1.55;;
78406;SDS011;67692;51.074;-1.790;2023-04-01T02:20:36;11.23;;;1.75;;
78406;SDS011;67692;51.074;-1.790;2023-04-01T02:23:04;6.82;;;1.40;;
78406;SDS011;67692;51.074;-1.790;2023-04-01T02:25:34;13.32;;;2.55;;
78406;SDS011;67692;51.074;-1.790;2023-04-01T02:28:02;9.13;;;1.83;;
78406;SDS011;67692;51.074;-1.790;2023-04-01T02:30:32;11.60;;;1.83;;
78406;SDS011;67692;51.074;-1.790;2023-04-01T02:33:01;11.32;;;2.40;;
78406;SDS011;67692;51.074;-1.790;2023-04-01T02:35:30;8.07;;;1.33;;
78406;SDS011;67692;51.074;-1.790;2023-04-01T02:38:00;6.55;;;1.27;;
78406;SDS011;67692;51.074;-1.790;2023-04-01T02:40:27;5.45;;;1.10;;
78406;SDS011;67692;51.074;-1.790;2023-04-01T02:42:53;7.82;;;1.30;;
78406;SDS011;67692;51.074;-1.790;2023-04-01T02:45:20;7.60;;;1.30;;
78406;SDS011;67692;51.074;-1.790;2023-04-01T02:47:47;8.95;;;1.52;;
78406;SDS011;67692;51.074;-1.790;2023-04-01T02:50:14;5.93;;;1.10;;
78406;SDS011;67692;51.074;-1.790;2023-04-01T02:52:41;7.38;;;1.13;;
78406;SDS011;67692;51.074;-1.790;2023-04-01T02:55:10;3.92;;;0.85;;
78406;SDS011;67692;51.074;-1.790;2023-04-01T02:57:36;6.63;;;0.93;;
78406;SDS011;67692;51.074;-1.790;2023-04-01T03:00:03;7.43;;;1.50;;
78406;SDS011;67692;51.074;-1.790;2023-04-01T03:02:36;7.53;;;1.38;;
78406;SDS011;67692;51.074;-1.790;2023-04-01T03:05:03;6.32;;;0.88;;
78406;SDS011;67692;51.074;-1.790;2023-04-01T03:07:30;6.78;;;1.42;;
78406;SDS011;67692;51.074;-1.790;2023-04-01T03:09:57;4.05;;;0.93;;
78406;SDS011;67692;51.074;-1.790;2023-04-01T03:12:25;3.65;;;0.82;;
78406;SDS011;67692;51.074;-1.790;2023-04-01T03:14:51;8.93;;;0.98;;
78406;SDS011;67692;51.074;-1.790;2023-04-01T03:17:18;8.32;;;1.45;;
78406;SDS011;67692;51.074;-1.790;2023-04-01T03:19:44;6.00;;;1.48;;
78406;SDS011;67692;51.074;-1.790;2023-04-01T03:22:11;10.10;;;1.10;;
78406;SDS011;67692;51.074;-1.790;2023-04-01T03:24:38;4.53;;;1.45;;
78406;SDS011;67692;51.074;-1.790;2023-04-01T03:27:04;8.85;;;1.33;;
78406;SDS011;67692;51.074;-1.790;2023-04-01T03:29:32;6.85;;;1.30;;
78406;SDS011;67692;51.074;-1.790;2023-04-01T03:31:59;8.38;;;2.00;;
78406;SDS011;67692;51.074;-1.790;2023-04-01T03:34:25;7.90;;;1.05;;
78406;SDS011;67692;51.074;-1.790;2023-04-01T03:36:52;5.25;;;0.90;;
78406;SDS011;67692;51.074;-1.790;2023-04-01T03:39:19;8.20;;;0.93;;
78406;SDS011;67692;51.074;-1.790;2023-04-01T03:41:45;4.38;;;1.00;;
78406;SDS011;67692;51.074;-1.790;2023-04-01T03:44:12;6.50;;;1.10;;
78406;SDS011;67692;51.074;-1.790;2023-04-01T03:46:40;5.35;;;1.40;;
78406;SDS011;67692;51.074;-1.790;2023-04-01T03:49:07;6.88;;;0.85;;
78406;SDS011;67692;51.074;-1.790;2023-04-01T03:51:36;6.28;;;0.93;;
78406;SDS011;67692;51.074;-1.790;2023-04-01T03:54:03;6.05;;;1.20;;
78406;SDS011;67692;51.074;-1.790;2023-04-01T03:56:29;9.18;;;1.23;;
78406;SDS011;67692;51.074;-1.790;2023-04-01T03:58:56;8.00;;;1.33;;
78406;SDS011;67692;51.074;-1.790;2023-04-01T04:01:23;9.02;;;1.40;;
78406;SDS011;67692;51.074;-1.790;2023-04-01T04:03:51;12.93;;;1.33;;
78406;SDS011;67692;51.074;-1.790;2023-04-01T04:06:18;12.05;;;1.58;;
78406;SDS011;67692;51.074;-1.790;2023-04-01T04:08:45;8.10;;;1.30;;
78406;SDS011;67692;51.074;-1.790;2023-04-01T04:11:12;9.70;;;1.38;;
78406;SDS011;67692;51.074;-1.790;2023-04-01T04:13:39;5.60;;;1.30;;
78406;SDS011;67692;51.074;-1.790;2023-04-01T04:16:06;8.05;;;1.67;;
78406;SDS011;67692;51.074;-1.790;2023-04-01T04:18:34;9.07;;;1.50;;
78406;SDS011;67692;51.074;-1.790;2023-04-01T04:21:03;7.82;;;1.55;;
78406;SDS011;67692;51.074;-1.790;2023-04-01T04:23:30;12.05;;;1.38;;
78406;SDS011;67692;51.074;-1.790;2023-04-01T04:25:59;9.30;;;1.42;;
78406;SDS011;67692;51.074;-1.790;2023-04-01T04:28:27;6.47;;;1.70;;
78406;SDS011;67692;51.074;-1.790;2023-04-01T04:30:54;11.27;;;2.45;;
78406;SDS011;67692;51.074;-1.790;2023-04-01T04:33:22;5.13;;;1.38;;
78406;SDS011;67692;51.074;-1.790;2023-04-01T04:35:49;10.80;;;2.25;;
78406;SDS011;67692;51.074;-1.790;2023-04-01T04:38:18;8.80;;;1.08;;
78406;SDS011;67692;51.074;-1.790;2023-04-01T04:40:44;6.15;;;1.40;;
78406;SDS011;67692;51.074;-1.790;2023-04-01T04:43:12;6.35;;;1.13;;
78406;SDS011;67692;51.074;-1.790;2023-04-01T04:45:40;6.50;;;1.23;;
78406;SDS011;67692;51.074;-1.790;2023-04-01T04:48:07;5.70;;;1.17;;
78406;SDS011;67692;51.074;-1.790;2023-04-01T04:50:35;6.75;;;1.13;;
78406;SDS011;67692;51.074;-1.790;2023-04-01T04:53:01;11.00;;;1.40;;
78406;SDS011;67692;51.074;-1.790;2023-04-01T04:55:29;7.70;;;1.60;;
78406;SDS011;67692;51.074;-1.790;2023-04-01T04:57:56;8.50;;;1.60;;
78406;SDS011;67692;51.074;-1.790;2023-04-01T05:00:23;5.43;;;1.05;;
78406;SDS011;67692;51.074;-1.790;2023-04-01T05:02:49;7.32;;;1.20;;
78406;SDS011;67692;51.074;-1.790;2023-04-01T05:05:16;6.70;;;1.45;;
78406;SDS011;67692;51.074;-1.790;2023-04-01T05:07:43;4.63;;;1.25;;
78406;SDS011;67692;51.074;-1.790;2023-04-01T05:10:09;6.43;;;1.83;;
78406;SDS011;67692;51.074;-1.790;2023-04-01T05:12:38;5.50;;;1.70;;
78406;SDS011;67692;51.074;-1.790;2023-04-01T05:15:06;8.65;;;1.60;;
78406;SDS011;67692;51.074;-1.790;2023-04-01T05:17:34;8.40;;;1.52;;
78406;SDS011;67692;51.074;-1.790;2023-04-01T05:20:00;5.13;;;1.58;;
78406;SDS011;67692;51.074;-1.790;2023-04-01T05:22:28;5.35;;;1.38;;
78406;SDS011;67692;51.074;-1.790;2023-04-01T05:24:55;9.15;;;2.00;;
78406;SDS011;67692;51.074;-1.790;2023-04-01T05:27:21;6.57;;;1.52;;
78406;SDS011;67692;51.074;-1.790;2023-04-01T05:29:49;8.15;;;1.60;;
78406;SDS011;67692;51.074;-1.790;2023-04-01T05:32:16;5.97;;;1.52;;
78406;SDS011;67692;51.074;-1.790;2023-04-01T05:34:42;7.35;;;1.83;;
78406;SDS011;67692;51.074;-1.790;2023-04-01T05:37:09;6.78;;;1.42;;
78406;SDS011;67692;51.074;-1.790;2023-04-01T05:39:36;10.27;;;2.03;;
78406;SDS011;67692;51.074;-1.790;2023-04-01T05:42:05;7.72;;;1.25;;
78406;SDS011;67692;51.074;-1.790;2023-04-01T05:44:32;8.85;;;1.30;;
78406;SDS011;67692;51.074;-1.790;2023-04-01T05:47:00;8.35;;;1.27;;
78406;SDS011;67692;51.074;-1.790;2023-04-01T05:49:27;13.68;;;1.30;;
78406;SDS011;67692;51.074;-1.790;2023-04-01T05:51:53;8.88;;;1.30;;
78406;SDS011;67692;51.074;-1.790;2023-04-01T05:54:20;9.55;;;1.55;;
78406;SDS011;67692;51.074;-1.790;2023-04-01T05:56:47;4.75;;;1.20;;
78406;SDS011;67692;51.074;-1.790;2023-04-01T05:59:13;10.77;;;2.15;;
78406;SDS011;67692;51.074;-1.790;2023-04-01T06:01:40;8.27;;;1.40;;
78406;SDS011;67692;51.074;-1.790;2023-04-01T06:04:10;5.38;;;1.67;;
78406;SDS011;67692;51.074;-1.790;2023-04-01T06:06:39;9.05;;;1.42;;
78406;SDS011;67692;51.074;-1.790;2023-04-01T06:09:07;9.25;;;2.20;;
78406;SDS011;67692;51.074;-1.790;2023-04-01T06:11:42;5.40;;;1.65;;
78406;SDS011;67692;51.074;-1.790;2023-04-01T06:14:23;10.65;;;1.75;;
78406;SDS011;67692;51.074;-1.790;2023-04-01T06:17:03;9.82;;;2.00;;
78406;SDS011;67692;51.074;-1.790;2023-04-01T06:19:44;6.68;;;1.45;;
78406;SDS011;67692;51.074;-1.790;2023-04-01T06:22:26;8.43;;;1.52;;
78406;SDS011;67692;51.074;-1.790;2023-04-01T06:25:15;8.60;;;1.77;;
78406;SDS011;67692;51.074;-1.790;2023-04-01T06:27:55;12.38;;;1.52;;
78406;SDS011;67692;51.074;-1.790;2023-04-01T06:30:35;7.80;;;1.80;;
78406;SDS011;67692;51.074;-1.790;2023-04-01T06:33:20;9.00;;;1.63;;
78406;SDS011;67692;51.074;-1.790;2023-04-01T06:36:15;7.90;;;1.92;;
78406;SDS011;67692;51.074;-1.790;2023-04-01T06:38:54;7.93;;;1.58;;
78406;SDS011;67692;51.074;-1.790;2023-04-01T06:44:23;4.97;;;1.40;;
78406;SDS011;67692;51.074;-1.790;2023-04-01T06:47:02;8.45;;;1.60;;
78406;SDS011;67692;51.074;-1.790;2023-04-01T06:49:44;8.45;;;1.65;;
78406;SDS011;67692;51.074;-1.790;2023-04-01T06:52:22;8.15;;;1.42;;
78406;SDS011;67692;51.074;-1.790;2023-04-01T06:54:53;8.05;;;1.67;;
78406;SDS011;67692;51.074;-1.790;2023-04-01T06:57:28;4.05;;;1.15;;
78406;SDS011;67692;51.074;-1.790;2023-04-01T07:00:00;8.90;;;1.58;;
78406;SDS011;67692;51.074;-1.790;2023-04-01T07:02:32;9.68;;;1.67;;
78406;SDS011;67692;51.074;-1.790;2023-04-01T07:05:04;7.22;;;1.58;;
78406;SDS011;67692;51.074;-1.790;2023-04-01T07:07:35;5.63;;;1.73;;
78406;SDS011;67692;51.074;-1.790;2023-04-01T07:10:05;8.32;;;1.70;;
78406;SDS011;67692;51.074;-1.790;2023-04-01T07:12:40;9.60;;;2.00;;
78406;SDS011;67692;51.074;-1.790;2023-04-01T07:15:14;7.38;;;1.70;;
78406;SDS011;67692;51.074;-1.790;2023-04-01T07:17:45;8.73;;;1.63;;
78406;SDS011;67692;51.074;-1.790;2023-04-01T07:20:20;13.60;;;2.78;;
78406;SDS011;67692;51.074;-1.790;2023-04-01T07:22:53;10.77;;;2.28;;
78406;SDS011;67692;51.074;-1.790;2023-04-01T07:25:24;6.03;;;1.67;;
78406;SDS011;67692;51.074;-1.790;2023-04-01T07:27:53;12.13;;;2.67;;
78406;SDS011;67692;51.074;-1.790;2023-04-01T07:30:26;7.97;;;1.63;;
78406;SDS011;67692;51.074;-1.790;2023-04-01T07:32:57;7.80;;;1.80;;
78406;SDS011;67692;51.074;-1.790;2023-04-01T07:35:30;9.52;;;1.92;;
78406;SDS011;67692;51.074;-1.790;2023-04-01T07:38:09;10.23;;;2.45;;
78406;SDS011;67692;51.074;-1.790;2023-04-01T07:40:43;9.25;;;2.25;;
78406;SDS011;67692;51.074;-1.790;2023-04-01T07:43:19;10.02;;;2.53;;
78406;SDS011;67692;51.074;-1.790;2023-04-01T07:46:00;11.32;;;2.05;;
78406;SDS011;67692;51.074;-1.790;2023-04-01T07:48:34;6.38;;;2.08;;
78406;SDS011;67692;51.074;-1.790;2023-04-01T07:51:06;8.90;;;1.98;;
78406;SDS011;67692;51.074;-1.790;2023-04-01T07:53:42;9.82;;;2.25;;
78406;SDS011;67692;51.074;-1.790;2023-04-01T07:56:15;10.35;;;2.13;;
78406;SDS011;67692;51.074;-1.790;2023-04-01T07:58:48;6.10;;;1.85;;
78406;SDS011;67692;51.074;-1.790;2023-04-01T08:01:23;10.75;;;2.05;;
78406;SDS011;67692;51.074;-1.790;2023-04-01T08:04:05;11.73;;;2.25;;
78406;SDS011;67692;51.074;-1.790;2023-04-01T08:06:44;6.90;;;1.65;;
78406;SDS011;67692;51.074;-1.790;2023-04-01T08:09:20;7.05;;;2.47;;
78406;SDS011;67692;51.074;-1.790;2023-04-01T08:11:55;6.70;;;1.65;;
78406;SDS011;67692;51.074;-1.790;2023-04-01T08:14:30;7.40;;;1.48;;
78406;SDS011;67692;51.074;-1.790;2023-04-01T08:17:03;6.03;;;1.52;;
78406;SDS011;67692;51.074;-1.790;2023-04-01T08:19:38;4.85;;;1.60;;
78406;SDS011;67692;51.074;-1.790;2023-04-01T08:22:22;5.70;;;1.40;;
78406;SDS011;67692;51.074;-1.790;2023-04-01T08:24:54;11.80;;;1.67;;
78406;SDS011;67692;51.074;-1.790;2023-04-01T08:27:28;5.22;;;1.60;;
78406;SDS011;67692;51.074;-1.790;2023-04-01T08:30:02;7.93;;;1.45;;
78406;SDS011;67692;51.074;-1.790;2023-04-01T08:32:32;4.50;;;1.35;;
78406;SDS011;67692;51.074;-1.790;2023-04-01T08:35:07;4.32;;;1.38;;
78406;SDS011;67692;51.074;-1.790;2023-04-01T08:37:36;4.72;;;1.20;;
78406;SDS011;67692;51.074;-1.790;2023-04-01T08:40:13;5.53;;;1.42;;
78406;SDS011;67692;51.074;-1.790;2023-04-01T08:42:54;7.78;;;1.75;;
78406;SDS011;67692;51.074;-1.790;2023-04-01T08:45:44;5.93;;;1.40;;
78406;SDS011;67692;51.074;-1.790;2023-04-01T08:48:40;7.28;;;1.60;;
78406;SDS011;67692;51.074;-1.790;2023-04-01T08:51:26;5.90;;;1.35;;
78406;SDS011;67692;51.074;-1.790;2023-04-01T08:54:20;3.85;;;1.48;;
78406;SDS011;67692;51.074;-1.790;2023-04-01T08:57:06;4.75;;;1.23;;
78406;SDS011;67692;51.074;-1.790;2023-04-01T08:59:50;4.25;;;1.13;;
78406;SDS011;67692;51.074;-1.790;2023-04-01T09:02:40;5.22;;;1.27;;
78406;SDS011;67692;51.074;-1.790;2023-04-01T09:05:31;5.15;;;1.85;;
78406;SDS011;67692;51.074;-1.790;2023-04-01T09:08:07;4.10;;;1.00;;
78406;SDS011;67692;51.074;-1.790;2023-04-01T09:10:49;3.70;;;1.30;;
78406;SDS011;67692;51.074;-1.790;2023-04-01T09:13:29;4.43;;;1.25;;
78406;SDS011;67692;51.074;-1.790;2023-04-01T09:16:08;5.45;;;1.10;;
78406;SDS011;67692;51.074;-1.790;2023-04-01T09:18:52;4.07;;;1.25;;
78406;SDS011;67692;51.074;-1.790;2023-04-01T09:21:43;6.07;;;1.20;;
78406;SDS011;67692;51.074;-1.790;2023-04-01T09:24:26;3.20;;;1.27;;
78406;SDS011;67692;51.074;-1.790;2023-04-01T09:27:05;3.05;;;1.33;;
78406;SDS011;67692;51.074;-1.790;2023-04-01T09:32:56;5.95;;;1.85;;
78406;SDS011;67692;51.074;-1.790;2023-04-01T09:35:46;7.60;;;1.70;;
78406;SDS011;67692;51.074;-1.790;2023-04-01T09:38:20;5.13;;;1.20;;
78406;SDS011;67692;51.074;-1.790;2023-04-01T09:40:53;5.93;;;1.15;;
78406;SDS011;67692;51.074;-1.790;2023-04-01T09:43:25;3.13;;;1.13;;
78406;SDS011;67692;51.074;-1.790;2023-04-01T09:45:59;7.40;;;1.40;;
78406;SDS011;67692;51.074;-1.790;2023-04-01T09:48:44;7.80;;;1.25;;
78406;SDS011;67692;51.074;-1.790;2023-04-01T09:51:23;4.30;;;1.42;;
78406;SDS011;67692;51.074;-1.790;2023-04-01T09:54:13;2.95;;;0.90;;
78406;SDS011;67692;51.074;-1.790;2023-04-01T10:11:51;6.03;;;1.20;;
78406;SDS011;67692;51.074;-1.790;2023-04-01T10:20:37;5.85;;;1.00;;
78406;SDS011;67692;51.074;-1.790;2023-04-01T10:23:24;3.92;;;1.23;;
78406;SDS011;67692;51.074;-1.790;2023-04-01T10:26:09;3.25;;;1.08;;
78406;SDS011;67692;51.074;-1.790;2023-04-01T10:28:56;2.70;;;0.95;;
78406;SDS011;67692;51.074;-1.790;2023-04-01T10:31:43;4.63;;;1.27;;
78406;SDS011;67692;51.074;-1.790;2023-04-01T10:37:18;4.43;;;1.00;;
78406;SDS011;67692;51.074;-1.790;2023-04-01T10:40:13;7.00;;;1.40;;
78406;SDS011;67692;51.074;-1.790;2023-04-01T10:43:16;4.85;;;1.55;;
78406;SDS011;67692;51.074;-1.790;2023-04-01T10:46:21;2.53;;;1.00;;
78406;SDS011;67692;51.074;-1.790;2023-04-01T10:58:12;4.25;;;1.60;;
78406;SDS011;67692;51.074;-1.790;2023-04-01T11:01:08;4.13;;;1.38;;
78406;SDS011;67692;51.074;-1.790;2023-04-01T11:13:37;5.18;;;0.80;;
78406;SDS011;67692;51.074;-1.790;2023-04-01T11:22:51;2.45;;;0.90;;
78406;SDS011;67692;51.074;-1.790;2023-04-01T11:25:45;2.22;;;0.80;;
78406;SDS011;67692;51.074;-1.790;2023-04-01T11:31:43;4.43;;;1.75;;
78406;SDS011;67692;51.074;-1.790;2023-04-01T11:34:29;4.40;;;1.30;;
78406;SDS011;67692;51.074;-1.790;2023-04-01T11:37:16;3.40;;;1.45;;
78406;SDS011;67692;51.074;-1.790;2023-04-01T11:39:57;6.20;;;2.70;;
78406;SDS011;67692;51.074;-1.790;2023-04-01T11:42:35;3.92;;;1.70;;
78406;SDS011;67692;51.074;-1.790;2023-04-01T11:45:13;5.68;;;2.55;;
78406;SDS011;67692;51.074;-1.790;2023-04-01T11:47:52;4.72;;;2.03;;
78406;SDS011;67692;51.074;-1.790;2023-04-01T11:50:33;4.20;;;1.92;;
78406;SDS011;67692;51.074;-1.790;2023-04-01T11:53:14;4.15;;;1.70;;
78406;SDS011;67692;51.074;-1.790;2023-04-01T11:56:02;4.60;;;1.40;;
78406;SDS011;67692;51.074;-1.790;2023-04-01T11:58:43;3.67;;;1.65;;
78406;SDS011;67692;51.074;-1.790;2023-04-01T12:01:24;6.20;;;2.80;;
78406;SDS011;67692;51.074;-1.790;2023-04-01T12:04:06;5.20;;;2.03;;
78406;SDS011;67692;51.074;-1.790;2023-04-01T12:06:52;3.85;;;1.60;;
78406;SDS011;67692;51.074;-1.790;2023-04-01T12:09:29;3.95;;;1.73;;
78406;SDS011;67692;51.074;-1.790;2023-04-01T12:12:06;4.22;;;1.58;;
78406;SDS011;67692;51.074;-1.790;2023-04-01T12:14:43;4.30;;;1.75;;
78406;SDS011;67692;51.074;-1.790;2023-04-01T12:17:24;2.97;;;1.40;;
78406;SDS011;67692;51.074;-1.790;2023-04-01T12:19:57;3.92;;;1.88;;
78406;SDS011;67692;51.074;-1.790;2023-04-01T12:22:38;4.22;;;1.73;;
78406;SDS011;67692;51.074;-1.790;2023-04-01T12:25:17;3.85;;;1.70;;
78406;SDS011;67692;51.074;-1.790;2023-04-01T12:27:54;4.18;;;1.63;;
78406;SDS011;67692;51.074;-1.790;2023-04-01T12:30:36;3.90;;;1.90;;
78406;SDS011;67692;51.074;-1.790;2023-04-01T12:33:17;4.90;;;1.85;;
78406;SDS011;67692;51.074;-1.790;2023-04-01T12:35:55;4.57;;;2.08;;
78406;SDS011;67692;51.074;-1.790;2023-04-01T12:38:39;4.45;;;1.48;;
78406;SDS011;67692;51.074;-1.790;2023-04-01T12:41:17;4.10;;;1.58;;
78406;SDS011;67692;51.074;-1.790;2023-04-01T12:52:45;4.25;;;2.20;;
78406;SDS011;67692;51.074;-1.790;2023-04-01T12:55:34;5.47;;;2.05;;
78406;SDS011;67692;51.074;-1.790;2023-04-01T12:58:12;4.32;;;1.85;;
78406;SDS011;67692;51.074;-1.790;2023-04-01T13:00:59;6.47;;;2.25;;
78406;SDS011;67692;51.074;-1.790;2023-04-01T13:03:48;5.25;;;2.20;;
78406;SDS011;67692;51.074;-1.790;2023-04-01T13:06:35;6.63;;;3.00;;
78406;SDS011;67692;51.074;-1.790;2023-04-01T13:09:12;7.50;;;3.80;;
78406;SDS011;67692;51.074;-1.790;2023-04-01T13:14:26;6.97;;;3.17;;
78406;SDS011;67692;51.074;-1.790;2023-04-01T13:17:03;9.95;;;4.28;;
78406;SDS011;67692;51.074;-1.790;2023-04-01T13:19:37;10.02;;;4.13;;
78406;SDS011;67692;51.074;-1.790;2023-04-01T13:22:11;7.47;;;3.50;;
78406;SDS011;67692;51.074;-1.790;2023-04-01T13:24:46;8.27;;;3.42;;
78406;SDS011;67692;51.074;-1.790;2023-04-01T13:27:20;8.15;;;3.30;;
78406;SDS011;67692;51.074;-1.790;2023-04-01T13:30:05;7.35;;;2.85;;
78406;SDS011;67692;51.074;-1.790;2023-04-01T13:32:47;5.40;;;2.15;;
78406;SDS011;67692;51.074;-1.790;2023-04-01T13:35:23;6.15;;;2.20;;
78406;SDS011;67692;51.074;-1.790;2023-04-01T13:38:02;8.13;;;2.97;;
78406;SDS011;67692;51.074;-1.790;2023-04-01T13:40:54;12.73;;;2.40;;
78406;SDS011;67692;51.074;-1.790;2023-04-01T13:43:34;5.90;;;2.83;;
78406;SDS011;67692;51.074;-1.790;2023-04-01T13:46:12;5.03;;;1.65;;
78406;SDS011;67692;51.074;-1.790;2023-04-01T13:48:54;3.92;;;1.67;;
78406;SDS011;67692;51.074;-1.790;2023-04-01T13:54:44;4.72;;;2.20;;
78406;SDS011;67692;51.074;-1.790;2023-04-01T13:57:28;5.05;;;2.20;;
78406;SDS011;67692;51.074;-1.790;2023-04-01T14:00:18;6.18;;;2.30;;
78406;SDS011;67692;51.074;-1.790;2023-04-01T14:02:56;6.85;;;2.28;;
78406;SDS011;67692;51.074;-1.790;2023-04-01T14:05:44;5.15;;;2.10;;
78406;SDS011;67692;51.074;-1.790;2023-04-01T14:08:32;7.18;;;3.17;;
78406;SDS011;67692;51.074;-1.790;2023-04-01T14:11:10;5.47;;;1.98;;
78406;SDS011;67692;51.074;-1.790;2023-04-01T14:13:44;7.80;;;2.70;;
78406;SDS011;67692;51.074;-1.790;2023-04-01T14:16:34;8.10;;;3.38;;
78406;SDS011;67692;51.074;-1.790;2023-04-01T14:19:22;8.73;;;3.55;;
78406;SDS011;67692;51.074;-1.790;2023-04-01T14:22:02;9.15;;;3.72;;
78406;SDS011;67692;51.074;-1.790;2023-04-01T14:24:42;11.07;;;4.03;;
78406;SDS011;67692;51.074;-1.790;2023-04-01T14:27:44;9.23;;;3.88;;
78406;SDS011;67692;51.074;-1.790;2023-04-01T14:30:27;10.43;;;3.90;;
78406;SDS011;67692;51.074;-1.790;2023-04-01T14:33:05;6.57;;;2.85;;
78406;SDS011;67692;51.074;-1.790;2023-04-01T14:35:41;6.95;;;3.22;;
78406;SDS011;67692;51.074;-1.790;2023-04-01T14:38:29;6.28;;;3.13;;
78406;SDS011;67692;51.074;-1.790;2023-04-01T14:41:07;7.63;;;3.60;;
78406;SDS011;67692;51.074;-1.790;2023-04-01T14:50:02;7.40;;;3.03;;
78406;SDS011;67692;51.074;-1.790;2023-04-01T14:52:32;8.43;;;3.65;;
78406;SDS011;67692;51.074;-1.790;2023-04-01T14:55:02;7.05;;;3.72;;
78406;SDS011;67692;51.074;-1.790;2023-04-01T14:57:53;7.90;;;3.67;;
78406;SDS011;67692;51.074;-1.790;2023-04-01T15:00:25;9.40;;;3.72;;
78406;SDS011;67692;51.074;-1.790;2023-04-01T15:02:54;9.35;;;3.35;;
78406;SDS011;67692;51.074;-1.790;2023-04-01T15:05:32;7.85;;;3.55;;
78406;SDS011;67692;51.074;-1.790;2023-04-01T15:08:18;7.72;;;3.30;;
78406;SDS011;67692;51.074;-1.790;2023-04-01T15:10:52;7.50;;;3.00;;
78406;SDS011;67692;51.074;-1.790;2023-04-01T15:13:46;10.80;;;3.58;;
78406;SDS011;67692;51.074;-1.790;2023-04-01T15:16:34;6.35;;;3.05;;
78406;SDS011;67692;51.074;-1.790;2023-04-01T15:19:12;8.35;;;3.55;;
78406;SDS011;67692;51.074;-1.790;2023-04-01T15:21:53;8.70;;;3.47;;
78406;SDS011;67692;51.074;-1.790;2023-04-01T15:24:37;8.02;;;3.90;;
78406;SDS011;67692;51.074;-1.790;2023-04-01T15:27:13;8.13;;;3.08;;
78406;SDS011;67692;51.074;-1.790;2023-04-01T15:30:05;9.80;;;3.58;;
78406;SDS011;67692;51.074;-1.790;2023-04-01T15:32:46;6.18;;;2.67;;
78406;SDS011;67692;51.074;-1.790;2023-04-01T15:35:27;9.32;;;3.63;;
78406;SDS011;67692;51.074;-1.790;2023-04-01T15:38:08;10.18;;;2.55;;
78406;SDS011;67692;51.074;-1.790;2023-04-01T15:40:45;3.88;;;1.60;;
78406;SDS011;67692;51.074;-1.790;2023-04-01T15:43:20;4.55;;;2.03;;
78406;SDS011;67692;51.074;-1.790;2023-04-01T15:45:58;3.67;;;1.55;;
78406;SDS011;67692;51.074;-1.790;2023-04-01T15:48:46;5.25;;;2.20;;
78406;SDS011;67692;51.074;-1.790;2023-04-01T15:51:40;6.05;;;1.35;;
78406;SDS011;67692;51.074;-1.790;2023-04-01T15:54:21;3.92;;;1.77;;
78406;SDS011;67692;51.074;-1.790;2023-04-01T15:56:54;3.85;;;1.63;;
78406;SDS011;67692;51.074;-1.790;2023-04-01T15:59:44;3.92;;;1.60;;
78406;SDS011;67692;51.074;-1.790;2023-04-01T16:02:30;5.05;;;1.75;;
78406;SDS011;67692;51.074;-1.790;2023-04-01T16:05:03;2.95;;;1.30;;
78406;SDS011;67692;51.074;-1.790;2023-04-01T16:07:43;2.83;;;1.25;;
78406;SDS011;67692;51.074;-1.790;2023-04-01T16:10:25;2.25;;;1.00;;
78406;SDS011;67692;51.074;-1.790;2023-04-01T16:13:20;3.70;;;1.10;;
78406;SDS011;67692;51.074;-1.790;2023-04-01T16:15:57;4.32;;;1.10;;
78406;SDS011;67692;51.074;-1.790;2023-04-01T16:18:39;8.68;;;3.33;;
78406;SDS011;67692;51.074;-1.790;2023-04-01T16:21:21;12.55;;;4.70;;
78406;SDS011;67692;51.074;-1.790;2023-04-01T16:24:02;4.28;;;1.65;;
78406;SDS011;67692;51.074;-1.790;2023-04-01T16:26:43;3.90;;;1.13;;
78406;SDS011;67692;51.074;-1.790;2023-04-01T16:29:17;5.05;;;1.30;;
78406;SDS011;67692;51.074;-1.790;2023-04-01T16:31:52;5.88;;;1.73;;
78406;SDS011;67692;51.074;-1.790;2023-04-01T16:34:24;4.10;;;1.55;;
78406;SDS011;67692;51.074;-1.790;2023-04-01T16:37:00;4.65;;;1.45;;
78406;SDS011;67692;51.074;-1.790;2023-04-01T16:39:34;6.00;;;2.30;;
78406;SDS011;67692;51.074;-1.790;2023-04-01T16:42:25;7.18;;;1.83;;
78406;SDS011;67692;51.074;-1.790;2023-04-01T16:45:02;9.77;;;4.15;;
78406;SDS011;67692;51.074;-1.790;2023-04-01T16:50:14;4.72;;;1.60;;